RJTY/OKO METAR and TAF weather

Enter ICAO airport designator
Station Type Date Time Source
RJTY METAR 2019/08/17 09:56 UTC NOAA

RJTY 170956Z AUTO 12003KT 10SM BKN085 32/22 A2965 RMK AO2 SLP034 T03170221 FZRANO $


Station Type Date Time Source
RJTY Decoded METAR 2019/08/17 09:56 UTC NOAA

Station name not available
Aug 17, 2019 - 05:56 AM EDT / 2019.08.17 0956 UTC
Wind: from the ESE (120 degrees) at 3 MPH (3 KT):0
Visibility: 10 mile(s):0
Sky conditions: mostly cloudy
Temperature: 89.1 F (31.7 C)
Heat index: 95.5 F (35.3 C):1
Dew Point: 71.8 F (22.1 C)
Relative Humidity: 56%
Pressure (altimeter): 29.65 in. Hg (1004 hPa)
ob: RJTY 170956Z AUTO 12003KT 10SM BKN085 32/22 A2965 RMK AO2 SLP034 T03170221 FZRANO
cycle: 10

Station Type Date Time Source
RJTY TAF 2019/08/17 05:12 UTC NOAA

TAF TAF RJTY 170500Z 1705/1811 12009KT 9999 SCT050 QNH2955INS
TEMPO 1705/1710 14010G15KT
BECMG 1714/1715 VRB06KT 9999 SCT030 QNH2964INS WND 09009KT AFT 1802
TEMPO 1806/1810 8000 -SHRA BKN020 TX36/1706Z TN24/1721Z

Example: see airport list